Meteo Giornale » Osservazioni meteo Italia » Grazzanise

ore: 22:55 - Osservazioni Meteo Grazzanise
Lat. 41° 3' N Lon. 14° 4' E Alt. 9 metri s.l.m.

molto_nuvoloso Europe/Rome

20 °C

Molto Nuvoloso

Temp. 24 Ore

13 °C

27 °C

Est/Nord-Est

16.7 Km/h

Dew point 16 °C

Umidità 77 %

Visibilità  10 Km

Il sole sorge alle ore 06:54

Il sole tramonta alle ore 18:55

Data e Ora Cielo e Fenomeni T °C DP °C Um. % Pres. hPa Vis. km Vento km/h
Oggi h: 22:55 molto_nuvoloso Molto Nuvoloso 20 16 77 1019 10 E/NE 16.7
Oggi h: 21:55 molto_nuvoloso Molto Nuvoloso 21 19 88 1019 10 N 5.5
Oggi h: 20:55 molto_nuvoloso Molto Nuvoloso 21 17 77 1018 10 E/NE 7.4
Oggi h: 19:55 molto_nuvoloso Molto Nuvoloso 22 19 83 1018 10 N 0
Oggi h: 18:55 molto_nuvoloso Molto Nuvoloso 22 19 83 1018 10 O 9.3
Oggi h: 17:55 molto_nuvoloso Molto Nuvoloso 23 19 78 1017 10 O 11.1
Oggi h: 16:55 molto_nuvoloso Molto Nuvoloso 23 18 73 1017 10 O/SO 14.8
Oggi h: 15:55 nuvoloso Nuvoloso 24 17 64 1017 10 O/SO 14.8
Oggi h: 14:55 nuvoloso Nuvoloso 27 15 47 1017 10 O/SO 9.3
Oggi h: 13:55 nuvoloso Nuvoloso 26 15 50 1017 10 NO 9.3
Oggi h: 12:55 nuvoloso Nuvoloso 26 14 47 1018 10 N 3.7
Oggi h: 11:55 sereno Sereno 25 14 50 1018 10 E/NE 9.3
Oggi h: 10:55 sereno Sereno 23 14 56 1018 10 N 5.5
Oggi h: 09:55 sereno Sereno 22 16 68 1018 10 N/NE 9.3
Oggi h: 08:55 sereno Sereno 18 15 82 1017 10 NE 18.5
Oggi h: 07:55 poco_nuvoloso Poco Nuvoloso 16 16 100 1018 10 N/NE 9.3
Oggi h: 06:55 poco_nuvoloso Poco Nuvoloso 13 13 100 1017 10 N 9.3
Oggi h: 05:55 sereno Sereno 14 14 100 1017 10 N/NE 9.3
Oggi h: 04:55 sereno Sereno 15 15 100 1017 10 N 9.3
Oggi h: 03:55 sereno Sereno 15 15 100 1018 10 N 7.4
Oggi h: 00:55 poco_nuvoloso Poco Nuvoloso 17 15 88 1017 10 NE 9.3
Ieri h: 23:55 poco_nuvoloso Poco Nuvoloso 17 15 88 1017 10 NE 9.3